createdAt,value
2019-03-19T00:01:30.556Z,4.40
2019-03-19T00:03:35.697Z,4.40
2019-03-19T00:05:42.929Z,4.30
2019-03-19T00:10:50.283Z,4.20
2019-03-19T00:15:59.894Z,4.10
2019-03-19T00:18:05.947Z,4.00
2019-03-19T00:20:12.292Z,4.10
2019-03-19T00:22:16.927Z,4.10
2019-03-19T00:24:21.922Z,4.10
2019-03-19T00:29:31.261Z,4.30
2019-03-19T00:31:37.362Z,4.20
2019-03-19T00:33:41.958Z,4.30
2019-03-19T00:35:46.817Z,4.30
2019-03-19T00:37:52.029Z,4.30
2019-03-19T00:39:57.368Z,4.20
2019-03-19T00:42:01.958Z,4.10
2019-03-19T00:44:07.637Z,4.10
2019-03-19T00:49:15.287Z,4.10
2019-03-19T00:51:20.773Z,4.10
2019-03-19T00:53:25.779Z,4.00
2019-03-19T00:55:40.151Z,4.00
2019-03-19T00:57:36.847Z,3.80
2019-03-19T00:59:41.423Z,3.90
2019-03-19T01:01:46.047Z,3.90
2019-03-19T01:03:51.044Z,3.90
2019-03-19T01:05:56.026Z,3.90
2019-03-19T01:08:00.480Z,3.90
2019-03-19T01:10:05.976Z,3.80
2019-03-19T01:12:11.035Z,3.80
2019-03-19T01:14:15.431Z,3.70
2019-03-19T01:16:19.796Z,3.60
2019-03-19T01:18:24.551Z,3.80
2019-03-19T01:20:29.407Z,3.70
2019-03-19T01:22:35.666Z,3.80
2019-03-19T01:24:40.329Z,3.80
2019-03-19T01:26:44.873Z,3.90
2019-03-19T01:28:49.284Z,3.80
2019-03-19T01:30:53.867Z,3.60
2019-03-19T01:32:58.449Z,3.50
2019-03-19T01:35:03.055Z,3.50
2019-03-19T01:37:07.822Z,3.50
2019-03-19T01:39:12.450Z,3.50
2019-03-19T01:41:17.274Z,3.50
2019-03-19T01:43:21.686Z,3.50
2019-03-19T01:45:26.094Z,3.40
2019-03-19T01:47:30.471Z,3.30
2019-03-19T01:49:36.357Z,3.30
2019-03-19T01:51:40.962Z,3.20
2019-03-19T01:53:45.420Z,3.10
2019-03-19T01:55:50.348Z,3.10
2019-03-19T01:57:55.386Z,3.00
2019-03-19T02:00:00.007Z,3.00
2019-03-19T02:02:04.694Z,3.00
2019-03-19T02:04:09.606Z,3.00
2019-03-19T02:09:17.807Z,3.10
2019-03-19T02:11:22.548Z,3.20
2019-03-19T02:13:28.810Z,3.20
2019-03-19T02:15:33.413Z,3.30
2019-03-19T02:17:38.318Z,3.20
2019-03-19T02:19:43.416Z,3.20
2019-03-19T02:21:47.794Z,3.00
2019-03-19T02:23:53.147Z,2.90
2019-03-19T02:25:58.293Z,2.90
2019-03-19T02:28:03.199Z,2.80
2019-03-19T02:30:08.567Z,2.60
2019-03-19T02:32:13.439Z,2.60
2019-03-19T02:34:18.261Z,2.50
2019-03-19T02:39:38.255Z,2.40
2019-03-19T02:41:44.802Z,2.40
2019-03-19T02:43:49.208Z,2.40
2019-03-19T02:45:54.818Z,2.30
2019-03-19T02:47:59.267Z,2.30
2019-03-19T02:50:04.912Z,2.30
2019-03-19T02:52:09.334Z,2.30
2019-03-19T02:54:14.046Z,2.20
2019-03-19T02:56:31.767Z,2.10
2019-03-19T02:58:24.856Z,2.20
2019-03-19T03:00:29.353Z,2.10
2019-03-19T03:02:34.162Z,2.10
2019-03-19T03:04:38.824Z,2.10
2019-03-19T03:06:43.415Z,2.20
2019-03-19T03:08:47.910Z,2.10
2019-03-19T03:10:52.886Z,2.00
2019-03-19T03:12:58.378Z,2.00
2019-03-19T03:15:03.270Z,2.10
2019-03-19T03:17:08.207Z,2.10
2019-03-19T03:19:12.807Z,2.00
2019-03-19T03:21:17.658Z,2.00
2019-03-19T03:23:22.327Z,2.10
2019-03-19T03:25:29.116Z,2.00
2019-03-19T03:27:34.441Z,2.00
2019-03-19T03:29:39.965Z,2.00
2019-03-19T03:31:45.994Z,1.90
2019-03-19T03:33:50.904Z,1.90
2019-03-19T03:35:55.563Z,1.80
2019-03-19T03:38:00.443Z,1.80
2019-03-19T03:40:05.679Z,1.80
2019-03-19T03:42:10.670Z,1.80
2019-03-19T03:44:15.630Z,1.90
2019-03-19T03:46:20.803Z,1.80
2019-03-19T03:48:29.196Z,1.80
2019-03-19T03:50:34.237Z,1.70
2019-03-19T03:52:39.706Z,1.70
2019-03-19T03:54:44.353Z,1.70
2019-03-19T03:57:01.248Z,1.70
2019-03-19T03:59:00.807Z,1.70
2019-03-19T04:01:02.886Z,1.80
2019-03-19T04:03:07.466Z,1.70
2019-03-19T04:05:13.210Z,1.80
2019-03-19T04:07:18.298Z,1.70
2019-03-19T04:09:23.834Z,1.60
2019-03-19T04:11:29.116Z,1.70
2019-03-19T04:13:33.757Z,1.60
2019-03-19T04:15:39.259Z,1.60
2019-03-19T04:19:55.075Z,1.70
2019-03-19T04:22:18.995Z,1.70
2019-03-19T04:24:23.675Z,1.70
2019-03-19T04:26:29.622Z,1.60
2019-03-19T04:28:34.191Z,1.50
2019-03-19T04:30:38.713Z,1.50
2019-03-19T04:32:45.234Z,1.40
2019-03-19T04:34:49.718Z,1.40
2019-03-19T04:36:54.518Z,1.40
2019-03-19T04:38:58.991Z,1.40
2019-03-19T04:41:03.365Z,1.50
2019-03-19T04:43:08.096Z,1.40
2019-03-19T04:45:12.651Z,1.40
2019-03-19T04:47:16.991Z,1.30
2019-03-19T04:49:21.440Z,1.20
2019-03-19T04:51:26.213Z,1.20
2019-03-19T04:53:30.725Z,1.20
2019-03-19T04:55:35.281Z,1.20
2019-03-19T04:57:39.890Z,1.20
2019-03-19T04:59:44.594Z,1.10
2019-03-19T05:01:48.995Z,1.10
2019-03-19T05:03:53.367Z,1.10
2019-03-19T05:06:16.813Z,1.20
2019-03-19T05:08:21.462Z,1.20
2019-03-19T05:10:25.950Z,1.20
2019-03-19T05:12:30.383Z,1.40
2019-03-19T05:14:34.900Z,1.30
2019-03-19T05:16:40.217Z,1.20
2019-03-19T05:18:45.052Z,1.20
2019-03-19T05:20:49.458Z,1.20
2019-03-19T05:22:53.851Z,1.10
2019-03-19T05:24:58.674Z,1.10
2019-03-19T05:27:14.805Z,1.10
2019-03-19T05:29:31.745Z,1.00
2019-03-19T05:31:36.167Z,1.00
2019-03-19T05:33:40.599Z,1.00
2019-03-19T05:36:04.515Z,1.00
2019-03-19T05:40:51.214Z,1.20
2019-03-19T05:42:56.111Z,1.20
2019-03-19T05:45:00.848Z,1.10
2019-03-19T05:47:05.274Z,1.20
2019-03-19T05:49:13.973Z,1.20
2019-03-19T05:51:37.657Z,1.30
2019-03-19T05:54:01.939Z,1.30
2019-03-19T05:56:06.573Z,1.30
2019-03-19T05:58:13.907Z,1.30
2019-03-19T06:00:19.688Z,1.20
2019-03-19T06:02:24.734Z,1.30
2019-03-19T06:04:29.190Z,1.30
2019-03-19T06:06:33.678Z,1.30
2019-03-19T06:08:38.326Z,1.40
2019-03-19T06:10:44.897Z,1.40
2019-03-19T06:12:49.447Z,1.50
2019-03-19T06:14:54.156Z,1.50
2019-03-19T06:16:58.609Z,1.50
2019-03-19T06:19:03.059Z,1.60
2019-03-19T06:21:07.569Z,1.50
2019-03-19T06:23:12.377Z,1.50
2019-03-19T06:25:16.810Z,1.50
2019-03-19T06:27:21.288Z,1.50
2019-03-19T06:29:45.882Z,1.50
2019-03-19T06:31:50.415Z,1.40
2019-03-19T06:33:54.925Z,1.50
2019-03-19T06:35:59.541Z,1.60
2019-03-19T06:38:04.068Z,1.60
2019-03-19T06:40:10.624Z,1.50
2019-03-19T06:42:18.618Z,1.50
2019-03-19T06:44:23.497Z,1.60
2019-03-19T06:46:29.120Z,1.60
2019-03-19T06:48:53.193Z,1.70
2019-03-19T06:50:57.867Z,1.70
2019-03-19T06:53:02.341Z,1.80
2019-03-19T06:55:07.749Z,1.90
2019-03-19T06:57:12.288Z,2.00
2019-03-19T06:59:16.707Z,2.00
2019-03-19T07:01:21.073Z,2.00
2019-03-19T07:03:25.455Z,2.10
2019-03-19T07:05:29.834Z,2.10
2019-03-19T07:07:34.355Z,2.20
2019-03-19T07:09:57.907Z,2.20
2019-03-19T07:12:02.382Z,2.30
2019-03-19T07:14:26.241Z,2.40
2019-03-19T07:16:50.201Z,2.50
2019-03-19T07:18:55.326Z,2.50
2019-03-19T07:21:01.097Z,2.60
2019-03-19T07:23:24.701Z,2.60
2019-03-19T07:25:29.247Z,2.70
2019-03-19T07:27:52.734Z,2.80
2019-03-19T07:29:58.409Z,2.90
2019-03-19T07:32:02.900Z,2.90
2019-03-19T07:34:07.378Z,3.10
2019-03-19T07:36:12.350Z,3.20
2019-03-19T07:38:36.025Z,3.30
2019-03-19T07:40:59.500Z,3.40
2019-03-19T07:43:04.055Z,3.40
2019-03-19T07:45:27.735Z,3.50
2019-03-19T07:47:32.221Z,3.50
2019-03-19T07:49:37.053Z,3.60
2019-03-19T07:51:41.488Z,3.60
2019-03-19T07:54:05.023Z,3.70
2019-03-19T07:56:09.974Z,3.70
2019-03-19T07:58:14.427Z,3.70
2019-03-19T08:00:19.338Z,3.70
2019-03-19T08:02:24.592Z,3.80
2019-03-19T08:04:29.170Z,3.80
2019-03-19T08:06:33.765Z,3.90
2019-03-19T08:08:38.513Z,3.90
2019-03-19T08:10:46.883Z,4.00
2019-03-19T08:12:51.340Z,4.10
2019-03-19T08:14:56.554Z,4.10
2019-03-19T08:17:01.360Z,4.10
2019-03-19T08:19:26.277Z,4.20
2019-03-19T08:21:30.710Z,4.30
2019-03-19T08:23:55.349Z,4.30
2019-03-19T08:26:00.046Z,4.40
2019-03-19T08:28:04.932Z,4.50
2019-03-19T08:30:15.051Z,4.50
2019-03-19T08:32:38.918Z,4.60
2019-03-19T08:34:43.418Z,4.60
2019-03-19T08:37:07.313Z,4.70
2019-03-19T08:39:14.082Z,4.70
2019-03-19T08:41:19.483Z,4.80
2019-03-19T08:43:23.993Z,4.80
2019-03-19T08:45:28.724Z,4.90
2019-03-19T08:47:33.787Z,4.90
2019-03-19T08:49:38.404Z,5.00
2019-03-19T08:52:01.746Z,5.00
2019-03-19T08:54:06.232Z,5.10
2019-03-19T08:56:22.354Z,5.20
2019-03-19T08:58:38.870Z,5.30
2019-03-19T09:00:44.408Z,5.40
2019-03-19T09:02:49.142Z,5.50
2019-03-19T09:05:12.647Z,5.60
2019-03-19T09:07:20.045Z,5.70
2019-03-19T09:09:24.267Z,5.90
2019-03-19T09:11:28.669Z,6.00
2019-03-19T09:13:34.171Z,6.10
2019-03-19T09:15:38.904Z,6.10
2019-03-19T09:17:43.221Z,6.30
2019-03-19T09:19:47.703Z,6.30
2019-03-19T09:21:52.189Z,6.30
2019-03-19T09:24:15.737Z,6.40
2019-03-19T09:26:32.461Z,6.40
2019-03-19T09:28:37.159Z,6.50
2019-03-19T09:30:53.125Z,6.40
2019-03-19T09:32:57.710Z,6.40
2019-03-19T09:35:21.243Z,6.40
2019-03-19T09:37:28.061Z,6.50
2019-03-19T09:39:35.484Z,6.50
2019-03-19T09:41:42.078Z,6.50
2019-03-19T09:43:46.538Z,6.50
2019-03-19T09:45:50.993Z,6.70
2019-03-19T09:47:55.938Z,6.80
2019-03-19T09:50:02.834Z,6.80
2019-03-19T09:52:07.410Z,6.80
2019-03-19T09:54:11.877Z,6.80
2019-03-19T09:56:16.856Z,7.00
2019-03-19T09:58:21.782Z,7.00
2019-03-19T10:00:26.287Z,7.10
2019-03-19T10:04:58.841Z,7.10
2019-03-19T10:07:06.235Z,7.30
2019-03-19T10:09:10.541Z,7.40
2019-03-19T10:11:34.067Z,7.30
2019-03-19T10:13:38.514Z,7.30
2019-03-19T10:15:42.958Z,7.20
2019-03-19T10:17:47.690Z,7.50
2019-03-19T10:19:52.098Z,7.50
2019-03-19T10:21:56.685Z,7.40
2019-03-19T10:24:01.556Z,7.40
2019-03-19T10:26:06.178Z,7.40
2019-03-19T10:28:24.764Z,7.50
2019-03-19T10:30:18.883Z,7.60
2019-03-19T10:32:34.718Z,7.60
2019-03-19T10:34:51.027Z,7.50
2019-03-19T10:37:07.476Z,7.50
2019-03-19T10:39:11.963Z,7.60
2019-03-19T10:41:16.596Z,7.70
2019-03-19T10:43:21.186Z,7.60
2019-03-19T10:45:26.277Z,7.70
2019-03-19T10:47:31.288Z,7.80
2019-03-19T10:49:35.814Z,7.80
2019-03-19T10:51:40.303Z,7.70
2019-03-19T10:53:44.819Z,7.70
2019-03-19T10:55:49.294Z,7.70
2019-03-19T10:57:53.852Z,7.80
2019-03-19T11:00:06.715Z,7.70
2019-03-19T11:02:11.164Z,7.80
2019-03-19T11:04:15.741Z,8.00
2019-03-19T11:06:20.213Z,8.00
2019-03-19T11:08:24.732Z,8.20
2019-03-19T11:10:29.224Z,8.30
2019-03-19T11:12:33.709Z,8.30
2019-03-19T11:14:38.466Z,8.40
2019-03-19T11:16:42.914Z,8.40
2019-03-19T11:18:47.609Z,8.40
2019-03-19T11:20:52.528Z,8.40
2019-03-19T11:22:57.057Z,8.40
2019-03-19T11:25:01.456Z,8.40
2019-03-19T11:27:05.815Z,8.50
2019-03-19T11:29:10.620Z,8.80
2019-03-19T11:31:14.999Z,8.70
2019-03-19T11:33:19.595Z,8.50
2019-03-19T11:35:24.240Z,8.40
2019-03-19T11:37:29.630Z,8.40
2019-03-19T11:39:34.935Z,8.60
2019-03-19T11:41:39.589Z,8.80
2019-03-19T11:43:46.006Z,9.00
2019-03-19T11:45:50.344Z,8.90
2019-03-19T11:48:13.813Z,8.90
2019-03-19T11:50:19.878Z,8.80
2019-03-19T11:52:26.559Z,8.70
2019-03-19T11:54:30.919Z,8.80
2019-03-19T11:56:35.723Z,8.90
2019-03-19T11:58:40.203Z,9.00
2019-03-19T12:00:47.377Z,9.20
2019-03-19T12:02:51.810Z,9.30
2019-03-19T12:04:56.486Z,9.20
2019-03-19T12:07:00.949Z,9.00
2019-03-19T12:09:07.780Z,8.90
2019-03-19T12:11:12.165Z,8.90
2019-03-19T12:13:17.210Z,8.90
2019-03-19T12:15:23.971Z,9.10
2019-03-19T12:17:27.770Z,9.00
2019-03-19T12:19:32.944Z,9.10
2019-03-19T12:21:37.385Z,9.20
2019-03-19T12:23:41.867Z,9.10
2019-03-19T12:25:46.407Z,9.40
2019-03-19T12:27:50.956Z,9.50
2019-03-19T12:30:22.077Z,9.50
2019-03-19T12:32:20.653Z,9.30
2019-03-19T12:34:25.377Z,9.40
2019-03-19T12:36:30.124Z,9.50
2019-03-19T12:38:34.693Z,9.50
2019-03-19T12:40:40.338Z,9.50
2019-03-19T12:42:44.708Z,9.70
2019-03-19T12:44:49.174Z,9.80
2019-03-19T12:46:53.640Z,9.80
2019-03-19T12:48:58.181Z,9.80
2019-03-19T12:51:03.373Z,9.90
2019-03-19T12:53:07.803Z,9.80
2019-03-19T12:55:12.242Z,9.90
2019-03-19T12:57:16.701Z,10.00
2019-03-19T12:59:21.076Z,10.20
2019-03-19T13:01:28.508Z,10.20
2019-03-19T13:03:32.278Z,10.20
2019-03-19T13:05:36.730Z,10.10
2019-03-19T13:07:41.252Z,10.30
2019-03-19T13:09:48.074Z,10.40
2019-03-19T13:11:52.523Z,10.30
2019-03-19T13:13:57.365Z,10.50
2019-03-19T13:16:01.824Z,10.80
2019-03-19T13:18:06.455Z,10.60
2019-03-19T13:20:11.766Z,10.70
2019-03-19T13:22:16.324Z,10.70
2019-03-19T13:24:20.868Z,10.50
2019-03-19T13:26:25.507Z,10.60
2019-03-19T13:28:32.763Z,10.50
2019-03-19T13:30:44.874Z,10.40
2019-03-19T13:35:12.834Z,10.50
2019-03-19T13:37:17.540Z,10.50
2019-03-19T13:39:22.023Z,10.70
2019-03-19T13:41:41.398Z,10.70
2019-03-19T13:43:45.916Z,10.70
2019-03-19T13:46:09.412Z,11.00
2019-03-19T13:48:32.956Z,11.00
2019-03-19T13:50:37.545Z,11.10
2019-03-19T13:52:41.909Z,11.40
2019-03-19T13:54:46.318Z,11.40
2019-03-19T13:56:50.816Z,11.10
2019-03-19T13:58:55.409Z,11.10
2019-03-19T14:00:59.926Z,11.20
2019-03-19T14:03:04.469Z,11.40
2019-03-19T14:05:11.736Z,11.50
2019-03-19T14:07:16.614Z,11.50
2019-03-19T14:09:21.076Z,11.50
2019-03-19T14:11:25.617Z,11.60
2019-03-19T14:13:49.050Z,11.70
2019-03-19T14:15:54.095Z,11.60
2019-03-19T14:17:58.783Z,11.50
2019-03-19T14:20:04.835Z,11.50
2019-03-19T14:22:10.148Z,11.70
2019-03-19T14:24:15.004Z,11.60
2019-03-19T14:26:20.023Z,11.80
2019-03-19T14:28:24.858Z,12.00
2019-03-19T14:30:29.620Z,11.70
2019-03-19T14:32:34.501Z,11.50
2019-03-19T14:34:39.129Z,11.20
2019-03-19T14:36:45.314Z,11.00
2019-03-19T14:38:54.668Z,11.10
2019-03-19T14:43:25.603Z,10.90
2019-03-19T14:45:31.129Z,10.80
2019-03-19T14:47:35.843Z,10.90
2019-03-19T14:49:55.158Z,10.90
2019-03-19T14:51:48.962Z,10.90
2019-03-19T14:54:18.538Z,11.00
2019-03-19T14:59:14.201Z,10.80
2019-03-19T15:01:38.277Z,10.90
2019-03-19T15:03:54.792Z,11.10
2019-03-19T15:06:11.271Z,11.20
2019-03-19T15:08:16.409Z,11.30
2019-03-19T15:10:21.115Z,11.60
2019-03-19T15:12:27.762Z,11.60
2019-03-19T15:14:33.936Z,11.60
2019-03-19T15:17:04.775Z,11.70
2019-03-19T15:19:03.955Z,11.70
2019-03-19T15:21:08.534Z,11.60
2019-03-19T15:23:13.332Z,11.60
2019-03-19T15:25:18.009Z,11.40
2019-03-19T15:27:22.604Z,11.50
2019-03-19T15:29:27.280Z,11.50
2019-03-19T15:31:32.171Z,11.50
2019-03-19T15:33:56.525Z,11.50
2019-03-19T15:36:20.061Z,11.40
2019-03-19T15:38:24.685Z,11.30
2019-03-19T15:40:29.105Z,11.20
2019-03-19T15:42:33.755Z,11.40
2019-03-19T15:44:39.361Z,11.20
2019-03-19T15:46:43.836Z,11.20
2019-03-19T15:48:49.047Z,11.30
2019-03-19T15:50:53.536Z,11.20
2019-03-19T15:52:58.280Z,11.00
2019-03-19T15:55:03.005Z,10.90
2019-03-19T15:57:07.626Z,10.80
2019-03-19T15:59:12.261Z,10.80
2019-03-19T16:03:22.831Z,10.40
2019-03-19T16:05:46.502Z,10.40
2019-03-19T16:07:50.961Z,10.20
2019-03-19T16:09:56.270Z,10.20
2019-03-19T16:12:00.605Z,10.20
2019-03-19T16:14:04.991Z,10.20
2019-03-19T16:16:09.504Z,10.20
2019-03-19T16:18:14.180Z,10.30
2019-03-19T16:20:19.209Z,10.30
2019-03-19T16:22:23.713Z,10.30
2019-03-19T16:24:28.591Z,10.30
2019-03-19T16:26:33.430Z,10.20
2019-03-19T16:28:41.128Z,10.30
2019-03-19T16:30:45.862Z,10.40
2019-03-19T16:32:50.618Z,10.40
2019-03-19T16:34:55.174Z,10.40
2019-03-19T16:37:02.423Z,10.50
2019-03-19T16:39:07.790Z,10.30
2019-03-19T16:41:12.270Z,10.20
2019-03-19T16:43:16.843Z,10.10
2019-03-19T16:45:22.547Z,10.10
2019-03-19T16:47:27.454Z,10.20
2019-03-19T16:49:31.973Z,10.20
2019-03-19T16:51:36.740Z,10.20
2019-03-19T16:54:00.306Z,10.30
2019-03-19T16:56:07.586Z,10.20
2019-03-19T17:00:17.213Z,10.00
2019-03-19T17:02:21.678Z,10.00
2019-03-19T17:04:26.189Z,10.00
2019-03-19T17:06:30.623Z,9.90
2019-03-19T17:08:35.054Z,10.00
2019-03-19T17:10:39.531Z,10.00
2019-03-19T17:12:45.542Z,9.90
2019-03-19T17:14:57.016Z,9.80
2019-03-19T17:17:01.646Z,9.80
2019-03-19T17:19:06.303Z,9.60
2019-03-19T17:21:14.173Z,9.60
2019-03-19T17:23:37.727Z,9.60
2019-03-19T17:25:42.452Z,9.60
2019-03-19T17:27:47.299Z,9.60
2019-03-19T17:29:52.086Z,9.50
2019-03-19T17:32:15.670Z,9.40
2019-03-19T17:34:32.799Z,9.30
2019-03-19T17:38:59.151Z,9.10
2019-03-19T17:43:47.688Z,9.10
2019-03-19T17:46:03.875Z,9.00
2019-03-19T17:48:16.233Z,8.90
2019-03-19T17:50:34.166Z,8.80
2019-03-19T17:52:40.911Z,8.70
2019-03-19T17:54:45.399Z,8.60
2019-03-19T17:56:50.040Z,8.60
2019-03-19T17:58:54.543Z,8.50
2019-03-19T18:00:59.070Z,8.50
2019-03-19T18:03:20.864Z,8.40
2019-03-19T18:05:12.617Z,8.50
2019-03-19T18:07:17.897Z,8.50
2019-03-19T18:09:23.153Z,8.50
2019-03-19T18:11:28.027Z,8.40
2019-03-19T18:13:32.557Z,8.40
2019-03-19T18:15:37.147Z,8.40
2019-03-19T18:17:41.659Z,8.40
2019-03-19T18:19:46.551Z,8.40
2019-03-19T18:21:52.029Z,8.30
2019-03-19T18:23:56.645Z,8.20
2019-03-19T18:26:01.159Z,8.10
2019-03-19T18:28:05.593Z,8.10
2019-03-19T18:30:31.930Z,8.00
2019-03-19T18:32:37.539Z,8.00
2019-03-19T18:34:42.606Z,8.00
2019-03-19T18:36:47.274Z,7.90
2019-03-19T18:38:55.910Z,7.90
2019-03-19T18:41:19.596Z,7.80
2019-03-19T18:43:38.604Z,7.80
2019-03-19T18:45:57.060Z,7.80
2019-03-19T18:48:02.580Z,7.70
2019-03-19T18:50:08.827Z,7.70
2019-03-19T18:52:13.363Z,7.60
2019-03-19T18:54:18.225Z,7.60
2019-03-19T18:56:24.092Z,7.60
2019-03-19T18:58:52.018Z,7.60
2019-03-19T19:00:56.609Z,7.50
2019-03-19T19:03:01.320Z,7.50
2019-03-19T19:05:06.748Z,7.50
2019-03-19T19:07:11.262Z,7.50
2019-03-19T19:09:15.809Z,7.50
2019-03-19T19:11:20.973Z,7.50
2019-03-19T19:13:46.303Z,7.40
2019-03-19T19:15:51.979Z,7.40
2019-03-19T19:17:57.166Z,7.40
2019-03-19T19:20:01.959Z,7.40
2019-03-19T19:22:25.601Z,7.40
2019-03-19T19:24:30.390Z,7.30
2019-03-19T19:26:35.416Z,7.30
2019-03-19T19:28:40.266Z,7.30
2019-03-19T19:30:45.290Z,7.20
2019-03-19T19:33:00.833Z,7.20
2019-03-19T19:34:57.654Z,7.20
2019-03-19T19:37:21.234Z,7.20
2019-03-19T19:39:25.807Z,7.20
2019-03-19T19:41:31.315Z,7.10
2019-03-19T19:43:37.395Z,7.10
2019-03-19T19:45:41.976Z,7.10
2019-03-19T19:48:05.787Z,7.10
2019-03-19T19:50:22.282Z,7.10
2019-03-19T19:52:38.321Z,7.00
2019-03-19T19:54:43.806Z,7.00
2019-03-19T19:56:48.678Z,7.00
2019-03-19T19:58:54.043Z,7.00
2019-03-19T20:01:01.450Z,6.90
2019-03-19T20:03:12.294Z,6.90
2019-03-19T20:05:14.379Z,6.90
2019-03-19T20:07:19.454Z,6.90
2019-03-19T20:09:24.333Z,6.90
2019-03-19T20:11:30.861Z,6.90
2019-03-19T20:13:36.305Z,6.80
2019-03-19T20:15:45.212Z,6.80
2019-03-19T20:18:10.351Z,6.70
2019-03-19T20:20:18.009Z,6.70
2019-03-19T20:22:41.597Z,6.70
2019-03-19T20:27:07.121Z,6.60
2019-03-19T20:29:11.884Z,6.60
2019-03-19T20:31:37.903Z,6.60
2019-03-19T20:33:51.278Z,6.50
2019-03-19T20:35:55.964Z,6.50
2019-03-19T20:38:02.827Z,6.50
2019-03-19T20:40:15.976Z,6.50
2019-03-19T20:42:20.476Z,6.40
2019-03-19T20:44:25.508Z,6.40
2019-03-19T20:46:30.689Z,6.40
2019-03-19T20:48:37.546Z,6.40
2019-03-19T20:51:02.879Z,6.30
2019-03-19T20:56:04.320Z,6.40
2019-03-19T20:58:11.763Z,6.30
2019-03-19T21:00:37.835Z,6.30
2019-03-19T21:02:48.427Z,6.30
2019-03-19T21:05:15.794Z,6.30
2019-03-19T21:07:05.131Z,6.30
2019-03-19T21:09:09.938Z,6.30
2019-03-19T21:11:16.537Z,6.20
2019-03-19T21:13:42.806Z,6.20
2019-03-19T21:16:07.311Z,6.10
2019-03-19T21:18:31.529Z,6.10
2019-03-19T21:20:48.744Z,6.10
2019-03-19T21:25:27.928Z,6.00
2019-03-19T21:29:58.114Z,5.90
2019-03-19T21:36:36.152Z,5.90
2019-03-19T21:38:49.040Z,6.00
2019-03-19T21:40:54.804Z,5.90
2019-03-19T21:43:05.368Z,5.90
2019-03-19T21:45:12.492Z,5.90
2019-03-19T21:47:17.500Z,5.80
2019-03-19T21:49:25.446Z,5.80
2019-03-19T21:51:30.378Z,5.80
2019-03-19T21:54:18.266Z,5.80
2019-03-19T21:56:26.666Z,5.70
2019-03-19T21:58:41.701Z,5.70
2019-03-19T22:00:51.409Z,5.80
2019-03-19T22:02:56.251Z,5.70
2019-03-19T22:05:00.736Z,5.70
2019-03-19T22:07:28.155Z,5.70
2019-03-19T22:09:40.395Z,5.60
2019-03-19T22:14:52.510Z,5.50
2019-03-19T22:17:28.746Z,5.50
2019-03-19T22:19:40.120Z,5.50
2019-03-19T22:27:48.008Z,5.50
2019-03-19T22:29:54.040Z,5.40
2019-03-19T22:31:58.531Z,5.40
2019-03-19T22:34:13.520Z,5.30
2019-03-19T22:36:12.227Z,5.30
2019-03-19T22:38:16.672Z,5.30
2019-03-19T22:40:21.507Z,5.30
2019-03-19T22:42:27.239Z,5.30
2019-03-19T22:44:31.641Z,5.20
2019-03-19T22:46:36.412Z,5.20
2019-03-19T22:48:43.490Z,5.20
2019-03-19T22:50:50.607Z,5.20
2019-03-19T22:52:55.363Z,5.10
2019-03-19T22:54:59.681Z,5.10
2019-03-19T22:57:04.446Z,5.10
2019-03-19T22:59:33.243Z,5.00
2019-03-19T23:01:38.397Z,5.10
2019-03-19T23:03:43.211Z,5.20
2019-03-19T23:05:47.692Z,5.10
2019-03-19T23:07:52.485Z,5.10
2019-03-19T23:10:16.285Z,5.10
2019-03-19T23:12:39.992Z,5.10
2019-03-19T23:14:44.514Z,5.10
2019-03-19T23:16:49.310Z,5.00
2019-03-19T23:19:13.178Z,5.00
2019-03-19T23:21:17.983Z,5.10
2019-03-19T23:23:41.439Z,5.00
2019-03-19T23:25:46.013Z,5.00
2019-03-19T23:27:50.814Z,5.00
2019-03-19T23:29:55.711Z,5.10
2019-03-19T23:32:19.276Z,5.00
2019-03-19T23:34:23.639Z,5.00
2019-03-19T23:36:28.179Z,5.00
2019-03-19T23:38:33.606Z,5.00
2019-03-19T23:40:37.996Z,4.90
2019-03-19T23:42:42.440Z,4.90
2019-03-19T23:44:46.927Z,4.90
2019-03-19T23:46:51.431Z,4.80
2019-03-19T23:48:55.850Z,4.80
2019-03-19T23:51:00.749Z,4.80
2019-03-19T23:53:05.247Z,4.70
2019-03-19T23:55:10.272Z,4.80
2019-03-19T23:57:15.162Z,4.70
2019-03-19T23:59:19.960Z,4.70
